createdAt,value
2022-12-18T00:02:14.513Z,102813.91
2022-12-18T00:04:36.375Z,102815.94
2022-12-18T00:06:58.206Z,102816.97
2022-12-18T00:09:20.570Z,102822.19
2022-12-18T00:11:42.826Z,102818.84
2022-12-18T00:14:04.853Z,102814.47
2022-12-18T00:16:29.108Z,102809.28
2022-12-18T00:18:56.220Z,102814.84
2022-12-18T00:21:19.081Z,102809.84
2022-12-18T00:23:44.033Z,102812.94
2022-12-18T00:26:16.868Z,102819.31
2022-12-18T00:28:38.894Z,102811.63
2022-12-18T00:31:16.742Z,102801.69
2022-12-18T00:33:40.059Z,102807.63
2022-12-18T00:36:14.748Z,102806.38
2022-12-18T00:38:37.519Z,102796.97
2022-12-18T00:40:59.660Z,102798.03
2022-12-18T00:43:21.508Z,102799.03
2022-12-18T00:45:43.373Z,102798.19
2022-12-18T00:48:06.203Z,102801.72
2022-12-18T00:50:28.304Z,102800.25
2022-12-18T00:52:50.421Z,102794.03
2022-12-18T00:55:13.238Z,102793.19
2022-12-18T00:57:35.244Z,102789.84
2022-12-18T00:59:57.021Z,102792.06
2022-12-18T01:02:19.062Z,102793.47
2022-12-18T01:04:40.934Z,102798.38
2022-12-18T01:07:02.723Z,102796.25
2022-12-18T01:09:24.659Z,102796.47
2022-12-18T01:11:47.475Z,102804.88
2022-12-18T01:14:09.742Z,102804.88
2022-12-18T01:16:33.108Z,102804.88
2022-12-18T01:18:56.115Z,102799.50
2022-12-18T01:21:18.090Z,102806.75
2022-12-18T01:23:40.907Z,102810.47
2022-12-18T01:26:13.874Z,102817.72
2022-12-18T01:28:36.405Z,102821.41
2022-12-18T01:30:58.387Z,102814.56
2022-12-18T01:33:20.215Z,102814.72
2022-12-18T01:35:43.638Z,102805.16
2022-12-18T01:38:05.502Z,102803.50
2022-12-18T01:40:27.301Z,102804.72
2022-12-18T01:42:54.837Z,102806.59
2022-12-18T01:45:16.569Z,102798.03
2022-12-18T01:47:56.200Z,102799.06
2022-12-18T01:50:44.072Z,102791.53
2022-12-18T01:53:09.143Z,102801.19
2022-12-18T01:55:39.482Z,102806.94
2022-12-18T01:58:02.130Z,102812.50
2022-12-18T02:00:27.308Z,102800.25
2022-12-18T02:02:50.513Z,102802.94
2022-12-18T02:05:20.790Z,102795.72
2022-12-18T02:08:10.221Z,102800.25
2022-12-18T02:10:41.353Z,102795.88
2022-12-18T02:13:50.368Z,102794.88
2022-12-18T02:16:36.428Z,102796.91
2022-12-18T02:19:08.031Z,102795.44
2022-12-18T02:22:04.317Z,102798.78
2022-12-18T02:25:34.045Z,102793.19
2022-12-18T02:28:01.659Z,102790.06
2022-12-18T02:30:24.378Z,102795.59
2022-12-18T02:32:53.873Z,102789.56
2022-12-18T02:35:25.161Z,102792.25
2022-12-18T02:37:50.606Z,102787.91
2022-12-18T02:40:15.172Z,102793.28
2022-12-18T02:42:37.061Z,102795.16
2022-12-18T02:45:01.671Z,102798.00
2022-12-18T02:47:30.483Z,102793.84
2022-12-18T02:50:26.052Z,102786.81
2022-12-18T02:53:23.106Z,102790.50
2022-12-18T02:56:30.923Z,102780.78
2022-12-18T02:59:14.245Z,102775.94
2022-12-18T03:02:03.887Z,102770.72
2022-12-18T03:04:49.775Z,102771.75
2022-12-18T03:07:28.648Z,102771.28
2022-12-18T03:09:55.742Z,102765.06
2022-12-18T03:12:45.948Z,102774.81
2022-12-18T03:15:18.076Z,102776.66
2022-12-18T03:17:49.924Z,102777.31
2022-12-18T03:20:20.022Z,102779.81
2022-12-18T03:22:47.875Z,102769.91
2022-12-18T03:25:15.669Z,102774.25
2022-12-18T03:27:47.424Z,102774.25
2022-12-18T03:30:14.656Z,102779.63
2022-12-18T03:32:57.582Z,102774.25
2022-12-18T03:35:31.383Z,102776.31
2022-12-18T03:37:53.656Z,102774.63
2022-12-18T03:40:15.960Z,102767.75
2022-12-18T03:42:53.311Z,102759.69
2022-12-18T03:45:33.687Z,102760.72
2022-12-18T03:48:06.996Z,102751.19
2022-12-18T03:50:57.897Z,102748.00
2022-12-18T03:53:32.446Z,102736.13
2022-12-18T03:55:56.840Z,102741.03
2022-12-18T03:58:27.552Z,102734.00
2022-12-18T04:01:03.787Z,102733.16
2022-12-18T04:03:30.027Z,102727.78
2022-12-18T04:05:56.297Z,102722.59
2022-12-18T04:08:19.760Z,102727.13
2022-12-18T04:10:49.895Z,102736.22
2022-12-18T04:13:12.102Z,102719.44
2022-12-18T04:15:37.313Z,102723.78
2022-12-18T04:18:01.211Z,102720.28
2022-12-18T04:20:31.168Z,102722.13
2022-12-18T04:22:54.301Z,102717.59
2022-12-18T04:25:16.452Z,102724.81
2022-12-18T04:27:50.185Z,102714.91
2022-12-18T04:30:12.618Z,102707.66
2022-12-18T04:32:35.551Z,102706.00
2022-12-18T04:34:57.430Z,102708.69
2022-12-18T04:37:19.781Z,102708.88
2022-12-18T04:39:42.431Z,102694.59
2022-12-18T04:42:11.311Z,102698.13
2022-12-18T04:44:33.175Z,102702.66
2022-12-18T04:46:55.070Z,102708.03
2022-12-18T04:49:17.939Z,102699.97
2022-12-18T04:51:40.140Z,102709.34
2022-12-18T04:54:02.094Z,102710.84
2022-12-18T04:56:24.686Z,102710.84
2022-12-18T04:58:46.717Z,102715.19
2022-12-18T05:01:10.415Z,102716.84
2022-12-18T05:03:32.879Z,102718.53
2022-12-18T05:05:54.854Z,102713.31
2022-12-18T05:08:16.822Z,102723.06
2022-12-18T05:10:38.646Z,102731.31
2022-12-18T05:13:01.125Z,102740.19
2022-12-18T05:15:23.340Z,102745.56
2022-12-18T05:17:45.606Z,102755.31
2022-12-18T05:20:08.178Z,102769.75
2022-12-18T05:22:29.953Z,102767.06
2022-12-18T05:24:51.955Z,102770.59
2022-12-18T05:27:13.763Z,102765.06
2022-12-18T05:29:35.590Z,102775.63
2022-12-18T05:31:57.523Z,102760.31
2022-12-18T05:34:19.383Z,102762.84
2022-12-18T05:36:41.223Z,102765.34
2022-12-18T05:39:03.571Z,102755.41
2022-12-18T05:41:26.178Z,102753.38
2022-12-18T05:43:48.259Z,102757.56
2022-12-18T05:46:15.889Z,102757.56
2022-12-18T05:48:37.710Z,102753.22
2022-12-18T05:51:08.021Z,102745.97
2022-12-18T05:53:29.928Z,102743.28
2022-12-18T05:55:51.785Z,102727.31
2022-12-18T05:58:15.989Z,102727.31
2022-12-18T06:00:42.006Z,102731.88
2022-12-18T06:03:03.989Z,102724.00
2022-12-18T06:05:26.549Z,102721.31
2022-12-18T06:07:48.425Z,102718.63
2022-12-18T06:10:10.514Z,102716.78
2022-12-18T06:12:34.426Z,102707.69
2022-12-18T06:14:56.285Z,102700.44
2022-12-18T06:17:18.181Z,102695.06
2022-12-18T06:19:40.006Z,102697.59
2022-12-18T06:22:01.784Z,102699.06
2022-12-18T06:24:23.647Z,102697.19
2022-12-18T06:26:45.446Z,102703.88
2022-12-18T06:29:07.387Z,102703.72
2022-12-18T06:31:29.247Z,102709.72
2022-12-18T06:33:51.597Z,102694.25
2022-12-18T06:36:14.716Z,102700.09
2022-12-18T06:38:39.801Z,102692.84
2022-12-18T06:41:06.678Z,102691.19
2022-12-18T06:43:28.696Z,102688.69
2022-12-18T06:45:53.612Z,102686.81
2022-12-18T06:48:15.660Z,102685.16
2022-12-18T06:50:37.394Z,102684.78
2022-12-18T06:52:59.213Z,102678.38
2022-12-18T06:55:21.194Z,102672.66
2022-12-18T06:57:43.130Z,102674.13
2022-12-18T07:00:07.787Z,102682.84
2022-12-18T07:02:29.749Z,102677.28
2022-12-18T07:04:51.671Z,102681.44
2022-12-18T07:07:13.704Z,102675.88
2022-12-18T07:09:35.781Z,102673.19
2022-12-18T07:11:57.595Z,102667.00
2022-12-18T07:14:20.273Z,102671.50
2022-12-18T07:16:42.132Z,102667.81
2022-12-18T07:19:04.025Z,102663.25
2022-12-18T07:21:26.599Z,102660.41
2022-12-18T07:23:49.349Z,102665.78
2022-12-18T07:26:14.869Z,102666.59
2022-12-18T07:28:38.683Z,102659.19
2022-12-18T07:31:22.244Z,102657.97
2022-12-18T07:33:45.317Z,102653.59
2022-12-18T07:36:09.008Z,102662.31
2022-12-18T07:38:32.278Z,102655.94
2022-12-18T07:40:54.124Z,102652.22
2022-12-18T07:43:16.000Z,102650.34
2022-12-18T07:45:37.813Z,102657.19
2022-12-18T07:47:59.698Z,102646.91
2022-12-18T07:50:21.635Z,102633.25
2022-12-18T07:52:43.693Z,102623.16
2022-12-18T07:55:06.315Z,102616.75
2022-12-18T08:00:12.639Z,102624.06
2022-12-18T08:02:35.003Z,102620.97
2022-12-18T08:04:57.363Z,102619.19
2022-12-18T08:07:19.559Z,102613.06
2022-12-18T08:09:41.463Z,102602.53
2022-12-18T08:12:03.718Z,102608.81
2022-12-18T08:14:25.889Z,102609.72
2022-12-18T08:16:47.954Z,102609.78
2022-12-18T08:19:09.835Z,102608.19
2022-12-18T08:21:32.764Z,102607.38
2022-12-18T08:23:57.257Z,102613.66
2022-12-18T08:26:20.167Z,102615.41
2022-12-18T08:28:43.452Z,102605.88
2022-12-18T08:31:06.301Z,102602.59
2022-12-18T08:33:28.523Z,102609.06
2022-12-18T08:35:50.557Z,102602.72
2022-12-18T08:38:12.481Z,102616.03
2022-12-18T08:40:34.577Z,102594.72
2022-12-18T08:43:15.048Z,102591.41
2022-12-18T08:45:37.052Z,102603.72
2022-12-18T08:47:58.945Z,102602.91
2022-12-18T08:50:21.188Z,102612.69
2022-12-18T08:52:43.108Z,102621.66
2022-12-18T08:55:05.897Z,102606.75
2022-12-18T08:57:27.804Z,102600.53
2022-12-18T08:59:50.080Z,102592.69
2022-12-18T09:02:12.794Z,102587.72
2022-12-18T09:04:35.111Z,102583.19
2022-12-18T09:06:57.011Z,102584.22
2022-12-18T09:09:19.038Z,102582.81
2022-12-18T09:11:40.986Z,102592.81
2022-12-18T09:14:03.048Z,102596.31
2022-12-18T09:16:32.408Z,102591.16
2022-12-18T09:19:00.499Z,102585.13
2022-12-18T09:21:22.528Z,102577.47
2022-12-18T09:23:51.054Z,102583.91
2022-12-18T09:26:12.943Z,102591.81
2022-12-18T09:28:34.913Z,102595.97
2022-12-18T09:30:57.015Z,102604.28
2022-12-18T09:33:19.066Z,102595.56
2022-12-18T09:35:44.531Z,102593.28
2022-12-18T09:38:09.725Z,102592.66
2022-12-18T09:40:42.537Z,102597.03
2022-12-18T09:43:12.308Z,102589.13
2022-12-18T09:45:48.618Z,102592.47
2022-12-18T09:48:29.167Z,102579.41
2022-12-18T09:50:58.665Z,102575.03
2022-12-18T09:53:29.415Z,102577.09
2022-12-18T09:55:55.575Z,102589.38
2022-12-18T09:58:45.516Z,102583.75
2022-12-18T10:01:24.285Z,102569.59
2022-12-18T10:03:46.585Z,102564.19
2022-12-18T10:06:38.001Z,102553.56
2022-12-18T10:09:50.865Z,102539.63
2022-12-18T10:12:33.554Z,102536.50
2022-12-18T10:15:17.899Z,102535.03
2022-12-18T10:17:51.415Z,102536.28
2022-12-18T10:20:36.400Z,102530.00
2022-12-18T10:23:19.810Z,102538.75
2022-12-18T10:26:10.794Z,102532.69
2022-12-18T10:28:38.475Z,102531.84
2022-12-18T10:31:18.555Z,102533.06
2022-12-18T10:33:42.432Z,102542.19
2022-12-18T10:36:07.631Z,102550.28
2022-12-18T10:38:33.548Z,102545.91
2022-12-18T10:41:04.415Z,102537.75
2022-12-18T10:43:34.649Z,102525.66
2022-12-18T10:46:09.066Z,102525.00
2022-12-18T10:48:35.873Z,102524.38
2022-12-18T10:51:10.861Z,102512.28
2022-12-18T10:53:38.821Z,102506.22
2022-12-18T10:56:05.849Z,102494.94
2022-12-18T10:58:38.670Z,102493.47
2022-12-18T11:01:19.384Z,102486.34
2022-12-18T11:03:45.512Z,102486.94
2022-12-18T21:42:27.117Z,102062.59
2022-12-18T21:45:31.403Z,102064.25
2022-12-18T23:49:12.595Z,101870.00
2022-12-18T23:53:05.551Z,101869.25
2022-12-18T23:55:31.825Z,101875.50
2022-12-18T23:57:55.891Z,101873.38
